sensor_id;sensor_type;location;lat;lon;timestamp;temperature;humidity
26503;DHT22;14177;51.520;6.764;2023-04-01T00:01:36;10.50;99.90
26503;DHT22;14177;51.520;6.764;2023-04-01T00:04:03;10.40;99.90
26503;DHT22;14177;51.520;6.764;2023-04-01T00:06:31;10.50;99.90
26503;DHT22;14177;51.520;6.764;2023-04-01T00:09:03;10.50;99.90
26503;DHT22;14177;51.520;6.764;2023-04-01T00:11:32;10.50;99.90
26503;DHT22;14177;51.520;6.764;2023-04-01T00:13:59;10.40;99.90
26503;DHT22;14177;51.520;6.764;2023-04-01T00:16:29;10.40;99.90
26503;DHT22;14177;51.520;6.764;2023-04-01T00:19:09;10.50;99.90
26503;DHT22;14177;51.520;6.764;2023-04-01T00:21:36;10.50;99.90
26503;DHT22;14177;51.520;6.764;2023-04-01T00:24:04;10.50;99.90
26503;DHT22;14177;51.520;6.764;2023-04-01T00:26:35;10.50;99.90
26503;DHT22;14177;51.520;6.764;2023-04-01T00:29:02;10.50;99.90
26503;DHT22;14177;51.520;6.764;2023-04-01T00:31:32;10.50;99.90
26503;DHT22;14177;51.520;6.764;2023-04-01T00:34:08;10.50;99.90
26503;DHT22;14177;51.520;6.764;2023-04-01T00:36:35;10.60;99.90
26503;DHT22;14177;51.520;6.764;2023-04-01T00:39:04;10.60;99.90
26503;DHT22;14177;51.520;6.764;2023-04-01T00:41:34;10.60;99.90
26503;DHT22;14177;51.520;6.764;2023-04-01T00:44:23;10.60;99.90
26503;DHT22;14177;51.520;6.764;2023-04-01T00:46:56;10.60;99.90
26503;DHT22;14177;51.520;6.764;2023-04-01T00:49:36;10.50;99.90
26503;DHT22;14177;51.520;6.764;2023-04-01T00:52:12;10.50;99.90
26503;DHT22;14177;51.520;6.764;2023-04-01T00:54:44;10.50;99.90
26503;DHT22;14177;51.520;6.764;2023-04-01T00:57:22;10.50;99.90
26503;DHT22;14177;51.520;6.764;2023-04-01T00:59:54;10.40;99.90
26503;DHT22;14177;51.520;6.764;2023-04-01T01:02:23;10.40;99.90
26503;DHT22;14177;51.520;6.764;2023-04-01T01:05:30;10.30;99.90
26503;DHT22;14177;51.520;6.764;2023-04-01T01:11:33;10.40;99.90
26503;DHT22;14177;51.520;6.764;2023-04-01T01:17:13;10.30;99.90
26503;DHT22;14177;51.520;6.764;2023-04-01T01:38:03;10.40;99.90
26503;DHT22;14177;51.520;6.764;2023-04-01T01:40:36;10.40;99.90
26503;DHT22;14177;51.520;6.764;2023-04-01T01:43:10;10.30;99.90
26503;DHT22;14177;51.520;6.764;2023-04-01T01:45:46;10.30;99.90
26503;DHT22;14177;51.520;6.764;2023-04-01T01:48:17;10.30;99.90
26503;DHT22;14177;51.520;6.764;2023-04-01T01:50:51;10.30;99.90
26503;DHT22;14177;51.520;6.764;2023-04-01T01:53:20;10.30;99.90
26503;DHT22;14177;51.520;6.764;2023-04-01T01:55:50;10.20;99.90
26503;DHT22;14177;51.520;6.764;2023-04-01T01:58:30;10.10;99.90
26503;DHT22;14177;51.520;6.764;2023-04-01T02:01:18;10.10;99.90
26503;DHT22;14177;51.520;6.764;2023-04-01T02:03:57;10.20;99.90
26503;DHT22;14177;51.520;6.764;2023-04-01T02:06:30;10.20;99.90
26503;DHT22;14177;51.520;6.764;2023-04-01T02:09:06;10.30;99.90
26503;DHT22;14177;51.520;6.764;2023-04-01T02:11:57;10.30;99.90
26503;DHT22;14177;51.520;6.764;2023-04-01T02:14:53;10.30;99.90
26503;DHT22;14177;51.520;6.764;2023-04-01T02:17:25;10.30;99.90
26503;DHT22;14177;51.520;6.764;2023-04-01T02:20:01;10.30;99.90
26503;DHT22;14177;51.520;6.764;2023-04-01T02:22:36;10.30;99.90
26503;DHT22;14177;51.520;6.764;2023-04-01T02:25:14;10.40;99.90
26503;DHT22;14177;51.520;6.764;2023-04-01T02:27:45;10.40;99.90
26503;DHT22;14177;51.520;6.764;2023-04-01T02:30:15;10.40;99.90
26503;DHT22;14177;51.520;6.764;2023-04-01T02:32:43;10.40;99.90
26503;DHT22;14177;51.520;6.764;2023-04-01T02:35:19;10.40;99.90
26503;DHT22;14177;51.520;6.764;2023-04-01T02:37:54;10.40;99.90
26503;DHT22;14177;51.520;6.764;2023-04-01T02:40:22;10.40;99.90
26503;DHT22;14177;51.520;6.764;2023-04-01T02:42:53;10.40;99.90
26503;DHT22;14177;51.520;6.764;2023-04-01T02:45:24;10.40;99.90
26503;DHT22;14177;51.520;6.764;2023-04-01T02:47:58;10.40;99.90
26503;DHT22;14177;51.520;6.764;2023-04-01T02:50:57;10.30;99.90
26503;DHT22;14177;51.520;6.764;2023-04-01T02:53:46;10.30;99.90
26503;DHT22;14177;51.520;6.764;2023-04-01T02:56:26;10.30;99.90
26503;DHT22;14177;51.520;6.764;2023-04-01T02:58:56;10.40;99.90
26503;DHT22;14177;51.520;6.764;2023-04-01T03:01:27;10.30;99.90
26503;DHT22;14177;51.520;6.764;2023-04-01T03:04:03;10.30;99.90
26503;DHT22;14177;51.520;6.764;2023-04-01T03:06:36;10.30;99.90
26503;DHT22;14177;51.520;6.764;2023-04-01T03:09:11;10.20;99.90
26503;DHT22;14177;51.520;6.764;2023-04-01T03:11:47;10.30;99.90
26503;DHT22;14177;51.520;6.764;2023-04-01T03:14:26;10.20;99.90
26503;DHT22;14177;51.520;6.764;2023-04-01T03:17:09;10.20;99.90
26503;DHT22;14177;51.520;6.764;2023-04-01T03:19:38;10.20;99.90
26503;DHT22;14177;51.520;6.764;2023-04-01T03:22:10;10.20;99.90
26503;DHT22;14177;51.520;6.764;2023-04-01T03:24:51;10.20;99.90
26503;DHT22;14177;51.520;6.764;2023-04-01T03:27:35;10.20;99.90
26503;DHT22;14177;51.520;6.764;2023-04-01T03:30:31;10.30;99.90
26503;DHT22;14177;51.520;6.764;2023-04-01T03:33:14;10.30;99.90
26503;DHT22;14177;51.520;6.764;2023-04-01T03:35:52;10.30;99.90
26503;DHT22;14177;51.520;6.764;2023-04-01T03:39:07;10.30;99.90
26503;DHT22;14177;51.520;6.764;2023-04-01T03:42:11;10.30;99.90
26503;DHT22;14177;51.520;6.764;2023-04-01T03:45:03;10.30;99.90
26503;DHT22;14177;51.520;6.764;2023-04-01T03:48:09;10.30;99.90
26503;DHT22;14177;51.520;6.764;2023-04-01T03:50:50;10.20;99.90
26503;DHT22;14177;51.520;6.764;2023-04-01T03:53:46;10.30;99.90
26503;DHT22;14177;51.520;6.764;2023-04-01T03:56:42;10.30;99.90
26503;DHT22;14177;51.520;6.764;2023-04-01T03:59:47;10.20;99.90
26503;DHT22;14177;51.520;6.764;2023-04-01T04:02:39;10.20;99.90
26503;DHT22;14177;51.520;6.764;2023-04-01T04:05:14;10.20;99.90
26503;DHT22;14177;51.520;6.764;2023-04-01T04:07:47;10.20;99.90
26503;DHT22;14177;51.520;6.764;2023-04-01T04:10:16;10.20;99.90
26503;DHT22;14177;51.520;6.764;2023-04-01T04:12:48;10.20;99.90
26503;DHT22;14177;51.520;6.764;2023-04-01T04:15:20;10.20;99.90
26503;DHT22;14177;51.520;6.764;2023-04-01T04:18:01;10.20;99.90
26503;DHT22;14177;51.520;6.764;2023-04-01T04:20:37;10.30;99.90
26503;DHT22;14177;51.520;6.764;2023-04-01T04:23:19;10.30;99.90
26503;DHT22;14177;51.520;6.764;2023-04-01T04:26:18;10.30;99.90
26503;DHT22;14177;51.520;6.764;2023-04-01T04:29:20;10.20;99.90
26503;DHT22;14177;51.520;6.764;2023-04-01T04:31:50;10.30;99.90
26503;DHT22;14177;51.520;6.764;2023-04-01T04:34:26;10.30;99.90
26503;DHT22;14177;51.520;6.764;2023-04-01T04:36:54;10.30;99.90
26503;DHT22;14177;51.520;6.764;2023-04-01T04:39:34;10.30;99.90
26503;DHT22;14177;51.520;6.764;2023-04-01T04:42:02;10.30;99.90
26503;DHT22;14177;51.520;6.764;2023-04-01T04:44:30;10.20;99.90
26503;DHT22;14177;51.520;6.764;2023-04-01T04:47:01;10.20;99.90
26503;DHT22;14177;51.520;6.764;2023-04-01T04:49:29;10.20;99.90
26503;DHT22;14177;51.520;6.764;2023-04-01T04:51:57;10.20;99.90
26503;DHT22;14177;51.520;6.764;2023-04-01T04:54:30;10.20;99.90
26503;DHT22;14177;51.520;6.764;2023-04-01T04:57:11;10.20;99.90
26503;DHT22;14177;51.520;6.764;2023-04-01T04:59:58;10.20;99.90
26503;DHT22;14177;51.520;6.764;2023-04-01T05:02:43;10.20;99.90
26503;DHT22;14177;51.520;6.764;2023-04-01T05:05:11;10.20;99.90
26503;DHT22;14177;51.520;6.764;2023-04-01T05:07:38;10.20;99.90
26503;DHT22;14177;51.520;6.764;2023-04-01T05:10:06;10.20;99.90
26503;DHT22;14177;51.520;6.764;2023-04-01T05:12:34;10.20;99.90
26503;DHT22;14177;51.520;6.764;2023-04-01T05:15:07;10.20;99.90
26503;DHT22;14177;51.520;6.764;2023-04-01T05:17:35;10.20;99.90
26503;DHT22;14177;51.520;6.764;2023-04-01T05:20:03;10.20;99.90
26503;DHT22;14177;51.520;6.764;2023-04-01T05:22:31;10.20;99.90
26503;DHT22;14177;51.520;6.764;2023-04-01T05:24:58;10.20;99.90
26503;DHT22;14177;51.520;6.764;2023-04-01T05:27:27;10.20;99.90
26503;DHT22;14177;51.520;6.764;2023-04-01T05:29:54;10.20;99.90
26503;DHT22;14177;51.520;6.764;2023-04-01T05:32:39;10.20;99.90
26503;DHT22;14177;51.520;6.764;2023-04-01T05:35:07;10.20;99.90
26503;DHT22;14177;51.520;6.764;2023-04-01T05:37:35;10.20;99.90
26503;DHT22;14177;51.520;6.764;2023-04-01T05:40:05;10.20;99.90
26503;DHT22;14177;51.520;6.764;2023-04-01T05:42:40;10.20;99.90
26503;DHT22;14177;51.520;6.764;2023-04-01T05:45:09;10.20;99.90
26503;DHT22;14177;51.520;6.764;2023-04-01T05:47:47;10.20;99.90
26503;DHT22;14177;51.520;6.764;2023-04-01T05:50:21;10.20;99.90
26503;DHT22;14177;51.520;6.764;2023-04-01T05:52:54;10.20;99.90
26503;DHT22;14177;51.520;6.764;2023-04-01T05:56:08;10.20;99.90
26503;DHT22;14177;51.520;6.764;2023-04-01T05:58:50;10.20;99.90
26503;DHT22;14177;51.520;6.764;2023-04-01T06:01:36;10.20;99.90
26503;DHT22;14177;51.520;6.764;2023-04-01T06:04:23;10.20;99.90
26503;DHT22;14177;51.520;6.764;2023-04-01T06:06:52;10.20;99.90
26503;DHT22;14177;51.520;6.764;2023-04-01T06:09:27;10.20;99.90
26503;DHT22;14177;51.520;6.764;2023-04-01T06:15:26;10.10;99.90
26503;DHT22;14177;51.520;6.764;2023-04-01T06:18:35;10.10;99.90
26503;DHT22;14177;51.520;6.764;2023-04-01T06:27:43;10.10;99.90
26503;DHT22;14177;51.520;6.764;2023-04-01T06:30:43;10.10;99.90
26503;DHT22;14177;51.520;6.764;2023-04-01T06:37:03;10.10;99.90
26503;DHT22;14177;51.520;6.764;2023-04-01T06:43:01;10.10;99.90
26503;DHT22;14177;51.520;6.764;2023-04-01T06:50:23;10.10;99.90
26503;DHT22;14177;51.520;6.764;2023-04-01T06:56:17;10.00;99.90
26503;DHT22;14177;51.520;6.764;2023-04-01T06:59:02;10.00;99.90
26503;DHT22;14177;51.520;6.764;2023-04-01T07:02:02;10.00;99.90
26503;DHT22;14177;51.520;6.764;2023-04-01T07:04:44;10.00;99.90
26503;DHT22;14177;51.520;6.764;2023-04-01T07:07:18;10.00;99.90
26503;DHT22;14177;51.520;6.764;2023-04-01T07:10:00;10.00;99.90
26503;DHT22;14177;51.520;6.764;2023-04-01T07:12:33;10.00;99.90
26503;DHT22;14177;51.520;6.764;2023-04-01T07:15:29;10.00;99.90
26503;DHT22;14177;51.520;6.764;2023-04-01T07:18:14;10.10;99.90
26503;DHT22;14177;51.520;6.764;2023-04-01T07:20:47;10.00;99.90
26503;DHT22;14177;51.520;6.764;2023-04-01T07:23:23;10.00;99.90
26503;DHT22;14177;51.520;6.764;2023-04-01T07:26:19;10.00;99.90
26503;DHT22;14177;51.520;6.764;2023-04-01T07:29:12;10.00;99.90
26503;DHT22;14177;51.520;6.764;2023-04-01T07:40:55;10.00;99.90
26503;DHT22;14177;51.520;6.764;2023-04-01T07:43:40;10.00;99.90
26503;DHT22;14177;51.520;6.764;2023-04-01T07:50:21;10.00;99.90
26503;DHT22;14177;51.520;6.764;2023-04-01T07:56:40;10.00;99.90
26503;DHT22;14177;51.520;6.764;2023-04-01T08:10:14;10.00;99.90
26503;DHT22;14177;51.520;6.764;2023-04-01T08:13:18;10.00;99.90
26503;DHT22;14177;51.520;6.764;2023-04-01T08:21:58;10.00;99.90
26503;DHT22;14177;51.520;6.764;2023-04-01T08:24:44;10.10;99.90
26503;DHT22;14177;51.520;6.764;2023-04-01T08:27:30;10.10;99.90
26503;DHT22;14177;51.520;6.764;2023-04-01T08:30:06;10.10;99.90
26503;DHT22;14177;51.520;6.764;2023-04-01T08:39:34;10.10;99.90
26503;DHT22;14177;51.520;6.764;2023-04-01T08:42:42;10.10;99.90
26503;DHT22;14177;51.520;6.764;2023-04-01T08:45:53;10.20;99.90
26503;DHT22;14177;51.520;6.764;2023-04-01T08:54:33;10.30;99.90
26503;DHT22;14177;51.520;6.764;2023-04-01T09:14:22;10.40;99.90
26503;DHT22;14177;51.520;6.764;2023-04-01T09:20:42;10.50;99.90
26503;DHT22;14177;51.520;6.764;2023-04-01T09:44:04;10.70;99.90
26503;DHT22;14177;51.520;6.764;2023-04-01T09:50:20;10.70;99.90
26503;DHT22;14177;51.520;6.764;2023-04-01T09:53:19;10.70;99.90
26503;DHT22;14177;51.520;6.764;2023-04-01T09:56:13;10.70;99.90
26503;DHT22;14177;51.520;6.764;2023-04-01T10:11:59;10.70;99.90
26503;DHT22;14177;51.520;6.764;2023-04-01T10:20:59;10.80;99.90
26503;DHT22;14177;51.520;6.764;2023-04-01T11:02:05;10.90;99.90
26503;DHT22;14177;51.520;6.764;2023-04-01T11:08:39;10.90;99.90
26503;DHT22;14177;51.520;6.764;2023-04-01T11:17:48;10.90;99.90
26503;DHT22;14177;51.520;6.764;2023-04-01T11:20:53;10.90;99.90
26503;DHT22;14177;51.520;6.764;2023-04-01T11:23:43;10.90;99.90
26503;DHT22;14177;51.520;6.764;2023-04-01T11:33:04;10.90;99.90
26503;DHT22;14177;51.520;6.764;2023-04-01T11:54:06;11.00;99.90
26503;DHT22;14177;51.520;6.764;2023-04-01T12:06:08;11.10;99.90
26503;DHT22;14177;51.520;6.764;2023-04-01T12:19:39;11.30;99.90
26503;DHT22;14177;51.520;6.764;2023-04-01T12:29:04;11.40;99.90
26503;DHT22;14177;51.520;6.764;2023-04-01T12:35:22;11.40;99.90
26503;DHT22;14177;51.520;6.764;2023-04-01T12:44:12;11.40;99.90
26503;DHT22;14177;51.520;6.764;2023-04-01T12:47:37;11.30;99.90
26503;DHT22;14177;51.520;6.764;2023-04-01T12:50:28;11.30;99.90
26503;DHT22;14177;51.520;6.764;2023-04-01T12:57:00;11.40;99.90
26503;DHT22;14177;51.520;6.764;2023-04-01T12:59:49;11.40;99.90
26503;DHT22;14177;51.520;6.764;2023-04-01T13:21:02;11.30;99.90
26503;DHT22;14177;51.520;6.764;2023-04-01T13:27:25;11.30;99.90
26503;DHT22;14177;51.520;6.764;2023-04-01T13:39:22;11.10;99.90
26503;DHT22;14177;51.520;6.764;2023-04-01T13:45:14;11.10;99.90
26503;DHT22;14177;51.520;6.764;2023-04-01T13:51:39;11.00;99.90
26503;DHT22;14177;51.520;6.764;2023-04-01T13:57:43;11.10;99.90
26503;DHT22;14177;51.520;6.764;2023-04-01T14:34:21;11.30;99.90
26503;DHT22;14177;51.520;6.764;2023-04-01T14:37:12;11.30;99.90
26503;DHT22;14177;51.520;6.764;2023-04-01T14:49:45;11.40;99.90
26503;DHT22;14177;51.520;6.764;2023-04-01T14:52:21;11.40;99.90
26503;DHT22;14177;51.520;6.764;2023-04-01T14:54:54;11.50;99.90
26503;DHT22;14177;51.520;6.764;2023-04-01T14:57:25;11.50;99.90
26503;DHT22;14177;51.520;6.764;2023-04-01T15:00:21;11.50;99.90
26503;DHT22;14177;51.520;6.764;2023-04-01T15:15:35;11.40;99.90
26503;DHT22;14177;51.520;6.764;2023-04-01T15:18:37;11.40;99.90
26503;DHT22;14177;51.520;6.764;2023-04-01T15:21:36;11.40;99.90
26503;DHT22;14177;51.520;6.764;2023-04-01T15:27:11;11.30;99.90
26503;DHT22;14177;51.520;6.764;2023-04-01T15:32:42;11.40;99.90
26503;DHT22;14177;51.520;6.764;2023-04-01T15:43:51;11.60;99.90
26503;DHT22;14177;51.520;6.764;2023-04-01T15:46:41;11.60;99.90
26503;DHT22;14177;51.520;6.764;2023-04-01T15:49:32;11.50;99.90
26503;DHT22;14177;51.520;6.764;2023-04-01T15:55:20;11.50;99.90
26503;DHT22;14177;51.520;6.764;2023-04-01T16:04:28;11.40;99.90
26503;DHT22;14177;51.520;6.764;2023-04-01T16:20:34;11.20;99.90
26503;DHT22;14177;51.520;6.764;2023-04-01T16:23:36;11.20;99.90
26503;DHT22;14177;51.520;6.764;2023-04-01T16:26:08;11.20;99.90
26503;DHT22;14177;51.520;6.764;2023-04-01T16:29:27;11.10;99.90
26503;DHT22;14177;51.520;6.764;2023-04-01T16:32:21;11.10;99.90
26503;DHT22;14177;51.520;6.764;2023-04-01T16:43:45;10.90;99.90
26503;DHT22;14177;51.520;6.764;2023-04-01T16:46:38;11.00;99.90
26503;DHT22;14177;51.520;6.764;2023-04-01T16:51:45;10.90;99.90
26503;DHT22;14177;51.520;6.764;2023-04-01T17:02:28;11.00;99.90
26503;DHT22;14177;51.520;6.764;2023-04-01T17:05:05;11.00;99.90
26503;DHT22;14177;51.520;6.764;2023-04-01T17:18:09;11.00;99.90
26503;DHT22;14177;51.520;6.764;2023-04-01T17:20:56;10.90;99.90
26503;DHT22;14177;51.520;6.764;2023-04-01T17:30:38;10.90;99.90
26503;DHT22;14177;51.520;6.764;2023-04-01T17:40:54;10.90;99.90
26503;DHT22;14177;51.520;6.764;2023-04-01T17:50:13;10.80;99.90
26503;DHT22;14177;51.520;6.764;2023-04-01T17:57:07;10.80;99.90
26503;DHT22;14177;51.520;6.764;2023-04-01T18:17:55;10.70;99.90
26503;DHT22;14177;51.520;6.764;2023-04-01T19:20:50;10.60;99.90
26503;DHT22;14177;51.520;6.764;2023-04-01T19:33:03;10.50;99.90
26503;DHT22;14177;51.520;6.764;2023-04-01T20:45:01;9.80;99.90
26503;DHT22;14177;51.520;6.764;2023-04-01T20:48:00;9.70;99.90
26503;DHT22;14177;51.520;6.764;2023-04-01T20:50:51;9.70;99.90
26503;DHT22;14177;51.520;6.764;2023-04-01T20:53:50;9.60;99.90
26503;DHT22;14177;51.520;6.764;2023-04-01T21:08:21;9.50;99.90
26503;DHT22;14177;51.520;6.764;2023-04-01T21:14:42;9.40;99.90
26503;DHT22;14177;51.520;6.764;2023-04-01T21:17:28;9.40;99.90
26503;DHT22;14177;51.520;6.764;2023-04-01T21:20:49;9.40;99.90
26503;DHT22;14177;51.520;6.764;2023-04-01T21:26:49;9.30;99.90
26503;DHT22;14177;51.520;6.764;2023-04-01T21:29:53;9.20;99.90
26503;DHT22;14177;51.520;6.764;2023-04-01T21:47:08;9.00;99.90
26503;DHT22;14177;51.520;6.764;2023-04-01T22:15:08;8.70;99.90
26503;DHT22;14177;51.520;6.764;2023-04-01T22:17:57;8.70;99.90
26503;DHT22;14177;51.520;6.764;2023-04-01T22:20:57;8.60;99.90
26503;DHT22;14177;51.520;6.764;2023-04-01T22:23:47;8.60;99.90
26503;DHT22;14177;51.520;6.764;2023-04-01T22:38:32;8.50;99.90
26503;DHT22;14177;51.520;6.764;2023-04-01T22:41:55;8.50;99.90
26503;DHT22;14177;51.520;6.764;2023-04-01T22:47:22;8.40;99.90
26503;DHT22;14177;51.520;6.764;2023-04-01T22:56:01;8.40;99.90
26503;DHT22;14177;51.520;6.764;2023-04-01T22:59:06;8.30;99.90
26503;DHT22;14177;51.520;6.764;2023-04-01T23:01:44;8.30;99.90
26503;DHT22;14177;51.520;6.764;2023-04-01T23:04:37;8.20;99.90
26503;DHT22;14177;51.520;6.764;2023-04-01T23:11:02;8.10;99.90
26503;DHT22;14177;51.520;6.764;2023-04-01T23:20:27;8.00;99.90
26503;DHT22;14177;51.520;6.764;2023-04-01T23:24:03;8.00;99.90
26503;DHT22;14177;51.520;6.764;2023-04-01T23:29:47;7.90;99.90
26503;DHT22;14177;51.520;6.764;2023-04-01T23:32:24;7.90;99.90
26503;DHT22;14177;51.520;6.764;2023-04-01T23:34:58;7.90;99.90
26503;DHT22;14177;51.520;6.764;2023-04-01T23:37:35;7.80;99.90
26503;DHT22;14177;51.520;6.764;2023-04-01T23:40:24;7.80;99.90
26503;DHT22;14177;51.520;6.764;2023-04-01T23:43:43;7.70;99.90
26503;DHT22;14177;51.520;6.764;2023-04-01T23:46:22;7.70;99.90
26503;DHT22;14177;51.520;6.764;2023-04-01T23:49:41;7.70;99.90
26503;DHT22;14177;51.520;6.764;2023-04-01T23:52:40;7.70;99.90
26503;DHT22;14177;51.520;6.764;2023-04-01T23:55:18;7.70;99.90
